Relevés horaires Beauvechain (Belgique)


Relevés horaires à Beauvechain - Mercredi 31 Août 2016
Heure UTC1 Température [°C] Vent [km/h] Hum. [%] Pres.4 [hPa] Visi. [Km] Nébu. [octa] Préc.5 [mm] Cond.
2m. Res. Ros. Dir.2 Vit. Moy. Raf.3
23:00 16.0 16.0 13.6 NNO 1.9 1.9 3.7 86 1022.3(0.7/3h) 8 -- -- --
22:00 16.7 16.7 13.6 NNO 1.9 1.9 3.7 82 1022.2(1.4/3h) 11 -- -- --
21:00 17.5 17.5 13.9 NNO 1.9 0.0 0.0 79 1021.7(1.5/3h) 14 -- -- --
20:00 18.5 18.5 13.9 NNO 3.7 5.6 9.3 75 1021.5(1.3/3h) 17 -- -- --
19:00 19.9 19.9 13.1 OSO 5.6 5.6 9.3 65 1020.7(0.4/3h) 20 -- -- --
18:00 22.5 22.5 12.4 NNO 1.9 0.0 0.0 53 1019.8(-0.2/3h) 20 -- 0/0h
--
17:00 23.0 23.0 12.6 NNO 1.9 5.6 7.4 52 1020(-0.3/3h) 20 -- -- --
16:00 24.4 24.4 11.6 O 5.6 5.6 7.4 45 1020(-0.3/3h) 25 2/8 -- --
15:00 24.4 24.4 11.3 O 5.6 0.0 0.0 44 1020.1(-0.4/3h) 25 2/8 -- --
14:00 24.5 24.5 11.5 O 7.4 7.4 11.1 44 1020.2(-0.5/3h) 25 2/8 -- --
13:00 24.0 24.0 12.0 OSO 5.6 7.4 11.1 47 1020.2(-0.5/3h) 25 1/8 -- --
12:00 22.9 22.9 11.9 O 5.6 -- -- 50 1020.7(-0.2/3h) 25 1/8 0/0h
--
11:00 23.5 23.5 11.7 O 5.6 7.4 11.1 47 1020.7(0.0/3h) 25 1/8 -- --
10:00 22.0 22.0 11.3 O 3.7 5.6 7.4 51 1021(0.3/3h) 15 1/8 -- --
09:00 20.3 20.3 12.3 O 5.6 -- -- 60 1021.1(0.4/3h) 15 1/8 -- --
08:00 19.2 19.2 11.8 OSO 5.6 5.6 9.3 62 1021(0.3/3h) 15 1/8 -- --
07:00 17.0 17.0 11.2 NNO 1.9 0.0 0.0 69 1020.8(0.0/3h) 15 1/8 -- --
06:00 14.6 14.6 9.9 NNO 1.9 3.7 5.6 73 1020.8(-0.4/3h) 15 1/8 0/0h
--
05:00 14.6 14.6 9.7 NNO 1.9 0.0 0.0 72 1020.8(-0.8/3h) 15 1/8 -- --
04:00 13.8 13.8 9.8 NNO 1.9 -- -- 77 1021(-0.9/3h) 15 1/8 -- --
03:00 14.1 14.1 10.0 NNO 0.0 0.0 0.0 76 1021.3(-1.0/3h) 20 -- -- --
02:00 14.8 14.8 10.1 NNO 0.0 0.0 0.0 73 1021.7(-1.2/3h) 19 -- -- --
01:00 15.6 15.6 10.2 NNO 0.0 0.0 0.0 70 1022(-1.2/3h) 20 -- -- --
00:00 15.7 15.7 10.6 NNO 0.0 0.0 0.0 72 1022.3(-1.0/3h) 20 -- 0/0h
--

1 Coordinated Universal Time. Actuellement il est 08:00 locale et 07:00 UTC.

2 Le vent souffle depuis la direction indiquée vers la direction oposée.

3 Les rafales max. sont disponible 40 min après l'heure du relevé.

4 Pour les stations d'altitude (plus de 600m) le géopotentiel du niveau le plus proche de la pression obligatoire est indiqué.

5 Les stations disposant d'un diffuseur peuvent indiquer "trace". Cela signifie que des précipitations ont touchés le sol mais que la quantité est inférieure à 0.1 mm.

Récapitulatif de la journée
Température [°C] Vent [km/h] Ensoleillement4 [h] Precipitations totale5 [mm] Pression [Hpa]
Min1 Max.2 Moy.3 Max. Min Max.
12.7 25.5 3 11.1 0 h 0 min 0 1019.8 1022.3

1 Température minimale relevée entre 18:00 UTC la veille et 18:00 UTC le jour donné.

2 Température maximale relevée entre 06:00 UTC le jour donné et 06:00 UTC le lendemain.

3 Vent moyen de la journée basé sur les relevés horaires.

4 Ensoleillement en heures relevé entre 06:00 UTC la veille et 06:00 UTC le jour donné.

5 Précipitations totales tombées entre 06:00 UTC la jour donné et 06:00 UTC le lendemain.

Graphiques horaires